Jonesborough, TN

9:36 PM EDT on August 20, 2014 (GMT -0400)
Sand Valley Estates | Change Station
CLOSE
Current Station
Personal Weather Station
Location: Jonesborough, TN
Elevation: 1732 ft
Nearby Weather Stations

Elev 1732 ft 36.27 °N, 82.51 °W | Updated 6 minutes ago

Thunderstorm
Thunderstorm
69.2 °F
Feels Like 69.2 °F
N
0.0
Wind Variable Wind from WSW
Gusts 0.0 mph

Today
High -- | Low -- °F
--% Chance of Precip.
Yesterday
High -- | Low -- °F
Precip. -- in
6:51 AM 8:14 PM
Waning Crescent, 18% visible
Pressure 30.09 in
Visibility 10.0 miles
Clouds Scattered Clouds 3000 ft
Scattered Clouds 9000 ft
Mostly Cloudy 12000 ft
Dew Point 66 °F
Humidity 88%
Rainfall 0.27 in
Snow Depth Not available.
UV 0 out of 12
Pollen 8.20 out of 12
Air Quality Not available.
Flu Activity Not available.
METAR KTRI 210053Z 27006KT 10SM TS SCT030 SCT090 BKN120 22/19 A3015 RMK AO2 RAB13E52 TSB24 SLP188 TS OHD OCNL LTGICCG MOV SE P0000 T02220189

More Conditions Fewer Conditions

Pressure 30.09 in
Visibility 10.0 miles
Clouds Scattered Clouds 3000 ft
Scattered Clouds 9000 ft
Mostly Cloudy 12000 ft
Dew Point 66 °F
Humidity 88%
Rainfall 0.27 in
Snow Depth Not available.
UV 0 out of 12
Pollen 8.20 out of 12
Air Quality Not available.
Flu Activity Not available.
METAR KTRI 210053Z 27006KT 10SM TS SCT030 SCT090 BKN120 22/19 A3015 RMK AO2 RAB13E52 TSB24 SLP188 TS OHD OCNL LTGICCG MOV SE P0000 T02220189

More Conditions Fewer Conditions

10-Day Weather Forecast

Almanac

Astronomy

Aug. 20, 2014 Rise Set
Actual Time 6:51 AM EDT 8:14 PM EDT
Civil Twilight 6:24 AM EDT 8:40 PM EDT
Nautical Twilight 5:52 AM EDT 9:13 PM EDT
Astronomical Twilight 5:18 AM EDT 9:46 PM EDT
Moon 2:34 AM EDT (8/20) 4:55 PM EDT (8/20)
Length of Visible Light 14h 15m
Length of Day
13h 22m
Tomorrow will be 2m 5s shorter.
Waning Crescent, 18% of the Moon is Illuminated
Today
Waning Crescent
Aug 25
New
Sep 2
First Quarter
Sep 8
Full
Sep 15
Last Quarter

Today's Extremes

State Highs State Lows

Community

WunderPhotos

Upload Photos

1,745,859 photos uploaded!

WunderBlogs® & News

Nearby

Snow Depth

Station Depth Elevation
No new snow has been reported.

Earthquake Activity

City Distance Mag. Time & Date
No recent earthquake activity has been reported nearby.
Minimum magnitude displayed is 2.5.

Coastal Water Temperatures

Place Temperature
No Stations Reporting

Nearby Weather Stations